Weather History for Charlevoix, MI

Change the Weather History Date:

Thursday, December 6, 2012

  Actual Average Record
Temperature  
Mean Temperature 32 °F -  
Max Temperature 41 °F 39 °F 53 °F (2001)
Min Temperature 26 °F 30 °F 15 °F (2005)
Degree Days  
Heating Degree Days 33    
Moisture  
Dew Point 25 °F    
Average Humidity 72    
Maximum Humidity 83    
Minimum Humidity 61    
Precipitation  
Precipitation 0.00 in - - ()
Sea Level Pressure  
Sea Level Pressure 30.03 in    
Wind  
Wind Speed 9 mph (SSE)    
Max Wind Speed 16 mph    
Max Gust Speed 24 mph    
Visibility 10 miles    
Events Rain , Snow    
Averages and records for this station are not official NWS values.
T = Trace of Precipitation, MM = Missing Value Source: NWS Daily Summary

Daily Weather History Graph

Daily Weather History Graph

Search for Another Location

Airport:

Trip Planner

Search our weather history database for the weather conditions in past years. The results will help you decide how hot, cold, wet, or windy it might be!

Date:

Astronomy

Dec. 06, 2012 Rise Set
Actual Time 8:06 AM EST 4:58 PM EST
Civil Twilight 7:32 AM EST 5:32 PM EST
Nautical Twilight 6:55 AM EST 6:09 PM EST
Astronomical Twilight 6:19 AM EST 6:45 PM EST
Moon 12:02 AM EST (12/6) 12:42 PM EST (12/6)
Length of Visible Light 9h 59m
Length of Day
8h 52m
Waning Gibbous, 49% of the Moon is Illuminated
Dec 6
Waning Gibbous
Dec 13
New
Dec 20
First Quarter
Dec 28
Full
Jan 4
Last Quarter

Hourly Weather History & Observations

Time (EST) Temp. Windchill Dew Point Humidity Pressure Visibility Wind Dir Wind Speed Gust Speed Precip Events Conditions
12:15 AM 26.6 °F 21.2 °F 21.0 °F 79% 30.29 in 10.0 mi SSE 4.6 mph - N/A   Clear
12:35 AM 27.3 °F 20.9 °F 20.7 °F 76% 30.27 in 10.0 mi SE 5.8 mph - N/A   Clear
12:55 AM 28.0 °F 21.7 °F 21.0 °F 75% 30.27 in 10.0 mi SE 5.8 mph - N/A   Clear
1:15 AM 28.9 °F 22.8 °F 21.6 °F 74% 30.26 in 10.0 mi SSE 5.8 mph - N/A   Clear
1:35 AM 30.0 °F 23.2 °F 21.9 °F 72% 30.26 in 10.0 mi SSE 6.9 mph - N/A   Clear
1:55 AM 30.4 °F 23.6 °F 21.9 °F 71% 30.26 in 10.0 mi South 6.9 mph - N/A   Clear
2:15 AM 30.7 °F 24.1 °F 22.1 °F 70% 30.25 in 10.0 mi South 6.9 mph 16.1 mph N/A   Clear
2:35 AM 30.7 °F 22.0 °F 22.1 °F 70% 30.25 in 10.0 mi SSE 10.4 mph - N/A   Clear
2:55 AM 30.6 °F 22.4 °F 22.1 °F 71% 30.24 in 10.0 mi SSE 9.2 mph - N/A   Clear
3:15 AM 30.6 °F 21.2 °F 22.1 °F 71% 30.24 in 10.0 mi South 11.5 mph - N/A   Clear
3:35 AM 30.6 °F 21.8 °F 22.1 °F 71% 30.23 in 10.0 mi SSE 10.4 mph - N/A   Clear
3:55 AM 30.6 °F 22.4 °F 22.3 °F 71% 30.23 in 10.0 mi South 9.2 mph - N/A   Clear
4:14 AM 30.4 °F 22.2 °F 22.5 °F 72% 30.22 in 10.0 mi SSE 9.2 mph - N/A   Clear
4:35 AM 30.2 °F 21.9 °F 22.5 °F 73% 30.21 in 10.0 mi South 9.2 mph - N/A   Clear
4:55 AM 30.2 °F 21.3 °F 22.5 °F 73% 30.20 in 10.0 mi SSE 10.4 mph - N/A   Clear
5:15 AM 30.2 °F 20.8 °F 22.1 °F 72% 30.19 in 10.0 mi SSE 11.5 mph - N/A   Scattered Clouds
5:35 AM 30.2 °F 20.8 °F 22.1 °F 72% 30.18 in 10.0 mi SE 11.5 mph - N/A   Mostly Cloudy
5:55 AM 30.2 °F 22.6 °F 22.1 °F 72% 30.17 in 10.0 mi SSE 8.1 mph - N/A   Overcast
6:15 AM 30.2 °F 23.4 °F 22.1 °F 72% 30.18 in 10.0 mi SSE 6.9 mph - N/A   Overcast
6:35 AM 30.2 °F 21.9 °F 22.1 °F 72% 30.17 in 10.0 mi SSE 9.2 mph - N/A   Mostly Cloudy
6:54 AM 30.2 °F 21.9 °F 22.1 °F 72% 30.15 in 10.0 mi SE 9.2 mph - N/A   Mostly Cloudy
7:15 AM 30.2 °F 21.9 °F 22.1 °F 72% 30.14 in 10.0 mi SSE 9.2 mph - N/A   Scattered Clouds
7:35 AM 30.6 °F 23.8 °F 22.1 °F 71% 30.14 in 10.0 mi SE 6.9 mph - N/A   Scattered Clouds
7:54 AM 30.7 °F 22.6 °F 22.1 °F 70% 30.13 in 10.0 mi SE 9.2 mph - N/A   Mostly Cloudy
8:14 AM 31.1 °F 22.4 °F 22.1 °F 69% 30.11 in 10.0 mi SSE 10.4 mph - N/A   Mostly Cloudy
8:35 AM 31.5 °F 24.9 °F 22.5 °F 69% 30.11 in 10.0 mi South 6.9 mph - N/A   Mostly Cloudy
8:55 AM 31.8 °F 23.9 °F 22.5 °F 68% 30.10 in 10.0 mi SSE 9.2 mph 16.1 mph N/A   Overcast
9:15 AM 32.0 °F 22.5 °F 22.5 °F 68% 30.09 in 10.0 mi SSE 12.7 mph - N/A   Overcast
9:35 AM 32.0 °F 24.2 °F 22.1 °F 67% 30.07 in 10.0 mi SSE 9.2 mph 18.4 mph N/A   Mostly Cloudy
9:55 AM 32.5 °F 24.2 °F 22.1 °F 65% 30.07 in 10.0 mi South 10.4 mph 16.1 mph N/A   Mostly Cloudy
10:15 AM 33.1 °F 26.1 °F 22.1 °F 64% 30.08 in 10.0 mi South 8.1 mph - N/A   Overcast
10:35 AM 33.3 °F 24.6 °F 22.1 °F 64% 30.06 in 10.0 mi South 11.5 mph 16.1 mph N/A   Overcast
10:55 AM 33.8 °F 25.3 °F 22.5 °F 63% 30.04 in 10.0 mi SSE 11.5 mph - N/A   Overcast
11:15 AM 34.0 °F 24.2 °F 22.5 °F 63% 30.04 in 10.0 mi South 15.0 mph 24.2 mph N/A   Overcast
11:35 AM 34.2 °F 27.5 °F 22.3 °F 62% 30.03 in 10.0 mi South 8.1 mph 18.4 mph N/A   Overcast
11:55 AM 34.5 °F 25.3 °F 22.1 °F 61% 30.01 in 10.0 mi South 13.8 mph 20.7 mph N/A   Overcast
12:15 PM 33.8 °F 23.5 °F 24.8 °F 70% 30.00 in 7.0 mi SSE 16.1 mph 23.0 mph N/A Rain Light Rain
12:35 PM 33.1 °F 23.0 °F 27.0 °F 78% 29.99 in 5.0 mi SSE 15.0 mph 19.6 mph N/A Rain Light Rain
12:55 PM 33.3 °F 25.7 °F 28.2 °F 82% 29.97 in 10.0 mi South 9.2 mph - N/A   Overcast
1:15 PM 34.0 °F 26.6 °F 28.8 °F 81% 29.97 in 10.0 mi South 9.2 mph 16.1 mph N/A   Overcast
1:35 PM 34.2 °F 25.7 °F 28.2 °F 79% 29.95 in 7.0 mi SSE 11.5 mph 17.3 mph N/A Snow Light Snow
1:55 PM 33.3 °F 24.1 °F 28.4 °F 82% 29.94 in 3.0 mi SSE 12.7 mph 17.3 mph N/A Rain Rain
2:15 PM 33.3 °F 25.7 °F 28.4 °F 82% 29.92 in 10.0 mi SSE 9.2 mph 18.4 mph N/A Rain Light Rain
2:35 PM 34.0 °F 26.0 °F 27.9 °F 78% 29.92 in 10.0 mi SSE 10.4 mph 17.3 mph N/A   Overcast
2:55 PM 34.7 °F 26.4 °F 27.7 °F 76% 29.91 in 10.0 mi SSE 11.5 mph 17.3 mph N/A   Overcast
3:15 PM 35.1 °F 27.4 °F 27.3 °F 73% 29.90 in 10.0 mi SSE 10.4 mph 17.3 mph N/A   Overcast
3:35 PM 35.2 °F 28.8 °F 27.7 °F 74% 29.90 in 10.0 mi SSE 8.1 mph - N/A   Overcast
3:55 PM 35.2 °F 28.1 °F 27.5 °F 73% 29.90 in 10.0 mi SSE 9.2 mph - N/A   Overcast
4:15 PM 35.6 °F 28.6 °F 26.6 °F 70% 29.90 in 10.0 mi SSE 9.2 mph - N/A   Overcast
4:35 PM 36.1 °F 28.2 °F 25.9 °F 66% 29.88 in 10.0 mi SE 11.5 mph - N/A   Overcast
4:51 PM 36.3 °F 28.9 °F 25.7 °F 65% 29.89 in 10.0 mi South 10.4 mph - N/A   Overcast
5:15 PM 36.5 °F 29.7 °F 25.9 °F 65% 29.89 in 10.0 mi South 9.2 mph - N/A   Mostly Cloudy
5:34 PM 36.5 °F 30.3 °F 26.4 °F 67% 29.89 in 10.0 mi SSE 8.1 mph - N/A   Overcast
5:55 PM 36.7 °F 31.2 °F 26.8 °F 67% 29.88 in 10.0 mi SSE 6.9 mph - N/A   Overcast
6:15 PM 36.9 °F 29.6 °F 27.3 °F 68% 29.88 in 10.0 mi South 10.4 mph 16.1 mph N/A   Overcast
6:35 PM 37.8 °F 30.2 °F 27.5 °F 67% 29.88 in 10.0 mi South 11.5 mph 18.4 mph N/A   Overcast
6:55 PM 37.9 °F 30.9 °F 27.9 °F 67% 29.87 in 10.0 mi South 10.4 mph 17.3 mph N/A   Overcast
7:15 PM 37.9 °F 30.9 °F 28.2 °F 68% 29.86 in 10.0 mi South 10.4 mph - N/A   Overcast
7:35 PM 37.9 °F 33.5 °F 28.4 °F 69% 29.87 in 10.0 mi South 5.8 mph - N/A   Overcast
8:14 PM 38.5 °F 31.1 °F 28.8 °F 68% 29.87 in 10.0 mi South 11.5 mph 17.3 mph N/A   Overcast
8:35 PM 38.5 °F 31.1 °F 29.1 °F 69% 29.87 in 10.0 mi South 11.5 mph 16.1 mph N/A   Overcast
8:54 PM 38.5 °F 31.1 °F 29.3 °F 70% 29.87 in 10.0 mi South 11.5 mph 16.1 mph N/A   Overcast
9:34 PM 38.3 °F 31.4 °F 30.2 °F 73% 29.87 in 10.0 mi South 10.4 mph - N/A   Overcast
9:55 PM 37.4 °F 32.1 °F 32.0 °F 81% 29.87 in 7.0 mi South 6.9 mph - N/A   Light Drizzle
10:15 PM 37.6 °F 30.5 °F 32.4 °F 81% 29.86 in 10.0 mi South 10.4 mph - N/A   Overcast
10:35 PM 37.8 °F 32.5 °F 32.4 °F 81% 29.86 in 10.0 mi South 6.9 mph - N/A   Overcast
10:55 PM 38.1 °F 32.9 °F 32.4 °F 80% 29.86 in 10.0 mi South 6.9 mph - N/A   Overcast
11:15 PM 38.3 °F 33.9 °F 32.5 °F 80% 29.86 in 10.0 mi South 5.8 mph - N/A   Overcast
11:35 PM 38.5 °F 35.0 °F 33.3 °F 81% 29.85 in 10.0 mi South 4.6 mph - N/A   Overcast
11:54 PM 40.5 °F 35.1 °F 35.8 °F 83% 29.85 in 10.0 mi SSW 8.1 mph - N/A   Overcast